sensor_id;sensor_type;location;lat;lon;timestamp;temperature;humidity
19397;DHT22;9834;48.076;11.878;2023-07-31T00:02:24;15.10;99.90
19397;DHT22;9834;48.076;11.878;2023-07-31T00:04:51;15.10;99.90
19397;DHT22;9834;48.076;11.878;2023-07-31T00:07:21;15.10;99.90
19397;DHT22;9834;48.076;11.878;2023-07-31T00:09:57;15.00;99.90
19397;DHT22;9834;48.076;11.878;2023-07-31T00:12:32;14.90;99.90
19397;DHT22;9834;48.076;11.878;2023-07-31T00:15:01;14.80;99.90
19397;DHT22;9834;48.076;11.878;2023-07-31T00:17:28;14.70;99.90
19397;DHT22;9834;48.076;11.878;2023-07-31T00:19:58;14.70;99.90
19397;DHT22;9834;48.076;11.878;2023-07-31T00:22:24;14.60;99.90
19397;DHT22;9834;48.076;11.878;2023-07-31T00:24:53;14.50;99.90
19397;DHT22;9834;48.076;11.878;2023-07-31T00:27:20;14.40;99.90
19397;DHT22;9834;48.076;11.878;2023-07-31T00:29:56;14.30;99.90
19397;DHT22;9834;48.076;11.878;2023-07-31T00:32:31;14.20;99.90
19397;DHT22;9834;48.076;11.878;2023-07-31T00:35:11;14.10;99.90
19397;DHT22;9834;48.076;11.878;2023-07-31T00:37:44;14.00;99.90
19397;DHT22;9834;48.076;11.878;2023-07-31T00:40:14;14.00;99.90
19397;DHT22;9834;48.076;11.878;2023-07-31T00:42:43;13.90;99.90
19397;DHT22;9834;48.076;11.878;2023-07-31T00:45:11;13.90;99.90
19397;DHT22;9834;48.076;11.878;2023-07-31T00:47:44;13.80;99.90
19397;DHT22;9834;48.076;11.878;2023-07-31T00:50:11;13.80;99.90
19397;DHT22;9834;48.076;11.878;2023-07-31T00:52:42;13.80;99.90
19397;DHT22;9834;48.076;11.878;2023-07-31T00:55:09;13.80;99.90
19397;DHT22;9834;48.076;11.878;2023-07-31T00:57:36;13.90;99.90
19397;DHT22;9834;48.076;11.878;2023-07-31T01:00:05;14.00;99.90
19397;DHT22;9834;48.076;11.878;2023-07-31T01:02:35;14.00;99.90
19397;DHT22;9834;48.076;11.878;2023-07-31T01:05:03;14.10;99.90
19397;DHT22;9834;48.076;11.878;2023-07-31T01:07:38;14.10;99.90
19397;DHT22;9834;48.076;11.878;2023-07-31T01:10:11;14.20;99.90
19397;DHT22;9834;48.076;11.878;2023-07-31T01:12:48;14.20;99.90
19397;DHT22;9834;48.076;11.878;2023-07-31T01:15:28;14.20;99.90
19397;DHT22;9834;48.076;11.878;2023-07-31T01:17:58;14.20;99.90
19397;DHT22;9834;48.076;11.878;2023-07-31T01:20:29;14.10;99.90
19397;DHT22;9834;48.076;11.878;2023-07-31T01:23:15;14.10;99.90
19397;DHT22;9834;48.076;11.878;2023-07-31T01:26:05;14.10;99.90
19397;DHT22;9834;48.076;11.878;2023-07-31T01:28:43;14.00;99.90
19397;DHT22;9834;48.076;11.878;2023-07-31T01:31:21;14.00;99.90
19397;DHT22;9834;48.076;11.878;2023-07-31T01:33:52;14.00;99.90
19397;DHT22;9834;48.076;11.878;2023-07-31T01:36:20;14.00;99.90
19397;DHT22;9834;48.076;11.878;2023-07-31T01:38:49;14.00;99.90
19397;DHT22;9834;48.076;11.878;2023-07-31T01:41:23;14.10;99.90
19397;DHT22;9834;48.076;11.878;2023-07-31T01:43:50;14.10;99.90
19397;DHT22;9834;48.076;11.878;2023-07-31T01:46:24;14.20;99.90
19397;DHT22;9834;48.076;11.878;2023-07-31T01:48:51;14.20;99.90
19397;DHT22;9834;48.076;11.878;2023-07-31T01:51:21;14.20;99.90
19397;DHT22;9834;48.076;11.878;2023-07-31T01:53:50;14.20;99.90
19397;DHT22;9834;48.076;11.878;2023-07-31T01:56:20;14.20;99.90
19397;DHT22;9834;48.076;11.878;2023-07-31T01:58:50;14.20;99.90
19397;DHT22;9834;48.076;11.878;2023-07-31T02:01:34;14.20;99.90
19397;DHT22;9834;48.076;11.878;2023-07-31T02:04:06;14.20;99.90
19397;DHT22;9834;48.076;11.878;2023-07-31T02:06:43;14.20;99.90
19397;DHT22;9834;48.076;11.878;2023-07-31T02:09:10;14.10;99.90
19397;DHT22;9834;48.076;11.878;2023-07-31T02:11:38;14.10;99.90
19397;DHT22;9834;48.076;11.878;2023-07-31T02:14:15;14.10;99.90
19397;DHT22;9834;48.076;11.878;2023-07-31T02:16:48;14.10;99.90
19397;DHT22;9834;48.076;11.878;2023-07-31T02:19:14;14.20;99.90
19397;DHT22;9834;48.076;11.878;2023-07-31T02:21:50;14.20;99.90
19397;DHT22;9834;48.076;11.878;2023-07-31T02:24:33;14.20;99.90
19397;DHT22;9834;48.076;11.878;2023-07-31T02:27:12;14.20;99.90
19397;DHT22;9834;48.076;11.878;2023-07-31T02:29:41;14.20;99.90
19397;DHT22;9834;48.076;11.878;2023-07-31T02:32:10;14.10;99.90
19397;DHT22;9834;48.076;11.878;2023-07-31T02:34:37;14.20;99.90
19397;DHT22;9834;48.076;11.878;2023-07-31T02:37:07;14.20;99.90
19397;DHT22;9834;48.076;11.878;2023-07-31T02:39:36;14.20;99.90
19397;DHT22;9834;48.076;11.878;2023-07-31T02:42:09;14.10;99.90
19397;DHT22;9834;48.076;11.878;2023-07-31T02:44:42;14.10;99.90
19397;DHT22;9834;48.076;11.878;2023-07-31T02:47:14;14.10;99.90
19397;DHT22;9834;48.076;11.878;2023-07-31T02:49:48;14.00;99.90
19397;DHT22;9834;48.076;11.878;2023-07-31T02:52:25;14.00;99.90
19397;DHT22;9834;48.076;11.878;2023-07-31T02:54:54;14.00;99.90
19397;DHT22;9834;48.076;11.878;2023-07-31T02:57:25;13.90;99.90
19397;DHT22;9834;48.076;11.878;2023-07-31T02:59:52;13.90;99.90
19397;DHT22;9834;48.076;11.878;2023-07-31T03:02:19;13.90;99.90
19397;DHT22;9834;48.076;11.878;2023-07-31T03:04:53;13.90;99.90
19397;DHT22;9834;48.076;11.878;2023-07-31T03:07:23;13.80;99.90
19397;DHT22;9834;48.076;11.878;2023-07-31T03:09:53;13.80;99.90
19397;DHT22;9834;48.076;11.878;2023-07-31T03:12:20;13.70;99.90
19397;DHT22;9834;48.076;11.878;2023-07-31T03:14:54;13.70;99.90
19397;DHT22;9834;48.076;11.878;2023-07-31T03:17:24;13.70;99.90
19397;DHT22;9834;48.076;11.878;2023-07-31T03:19:51;13.70;99.90
19397;DHT22;9834;48.076;11.878;2023-07-31T03:22:18;13.80;99.90
19397;DHT22;9834;48.076;11.878;2023-07-31T03:24:53;13.80;99.90
19397;DHT22;9834;48.076;11.878;2023-07-31T03:27:19;13.70;99.90
19397;DHT22;9834;48.076;11.878;2023-07-31T03:29:51;13.70;99.90
19397;DHT22;9834;48.076;11.878;2023-07-31T03:32:20;13.70;99.90
19397;DHT22;9834;48.076;11.878;2023-07-31T03:34:50;13.60;99.90
19397;DHT22;9834;48.076;11.878;2023-07-31T03:37:20;13.60;99.90
19397;DHT22;9834;48.076;11.878;2023-07-31T03:39:49;13.50;99.90
19397;DHT22;9834;48.076;11.878;2023-07-31T03:42:16;13.50;99.90
19397;DHT22;9834;48.076;11.878;2023-07-31T03:44:52;13.50;99.90
19397;DHT22;9834;48.076;11.878;2023-07-31T03:47:19;13.40;99.90
19397;DHT22;9834;48.076;11.878;2023-07-31T03:49:46;13.30;99.90
19397;DHT22;9834;48.076;11.878;2023-07-31T03:52:23;13.30;99.90
19397;DHT22;9834;48.076;11.878;2023-07-31T03:54:58;13.30;99.90
19397;DHT22;9834;48.076;11.878;2023-07-31T03:57:34;13.20;99.90
19397;DHT22;9834;48.076;11.878;2023-07-31T04:00:08;13.30;99.90
19397;DHT22;9834;48.076;11.878;2023-07-31T04:02:38;13.40;99.90
19397;DHT22;9834;48.076;11.878;2023-07-31T04:05:05;13.40;99.90
19397;DHT22;9834;48.076;11.878;2023-07-31T04:07:39;13.50;99.90
19397;DHT22;9834;48.076;11.878;2023-07-31T04:10:09;13.50;99.90
19397;DHT22;9834;48.076;11.878;2023-07-31T04:12:38;13.50;99.90
19397;DHT22;9834;48.076;11.878;2023-07-31T04:15:09;13.50;99.90
19397;DHT22;9834;48.076;11.878;2023-07-31T04:17:38;13.60;99.90
19397;DHT22;9834;48.076;11.878;2023-07-31T04:20:06;13.70;99.90
19397;DHT22;9834;48.076;11.878;2023-07-31T04:22:39;13.60;99.90
19397;DHT22;9834;48.076;11.878;2023-07-31T04:25:09;13.70;99.90
19397;DHT22;9834;48.076;11.878;2023-07-31T04:27:35;13.70;99.90
19397;DHT22;9834;48.076;11.878;2023-07-31T04:30:10;13.80;99.90
19397;DHT22;9834;48.076;11.878;2023-07-31T04:32:39;13.80;99.90
19397;DHT22;9834;48.076;11.878;2023-07-31T04:35:12;13.90;99.90
19397;DHT22;9834;48.076;11.878;2023-07-31T04:37:41;13.90;99.90
19397;DHT22;9834;48.076;11.878;2023-07-31T04:40:11;14.00;99.90
19397;DHT22;9834;48.076;11.878;2023-07-31T04:42:50;14.00;99.90
19397;DHT22;9834;48.076;11.878;2023-07-31T04:45:18;14.10;99.90
19397;DHT22;9834;48.076;11.878;2023-07-31T04:47:45;14.20;99.90
19397;DHT22;9834;48.076;11.878;2023-07-31T04:50:12;14.30;99.90
19397;DHT22;9834;48.076;11.878;2023-07-31T04:52:45;14.40;99.90
19397;DHT22;9834;48.076;11.878;2023-07-31T04:55:14;14.50;99.90
19397;DHT22;9834;48.076;11.878;2023-07-31T04:57:49;14.60;99.90
19397;DHT22;9834;48.076;11.878;2023-07-31T05:00:20;14.70;99.90
19397;DHT22;9834;48.076;11.878;2023-07-31T05:02:47;14.60;99.90
19397;DHT22;9834;48.076;11.878;2023-07-31T05:05:25;14.60;99.90
19397;DHT22;9834;48.076;11.878;2023-07-31T05:07:55;14.60;99.90
19397;DHT22;9834;48.076;11.878;2023-07-31T05:10:22;14.60;99.90
19397;DHT22;9834;48.076;11.878;2023-07-31T05:12:51;14.70;99.90
19397;DHT22;9834;48.076;11.878;2023-07-31T05:16:12;14.70;99.90
19397;DHT22;9834;48.076;11.878;2023-07-31T05:18:41;14.80;99.90
19397;DHT22;9834;48.076;11.878;2023-07-31T05:21:07;14.90;99.90
19397;DHT22;9834;48.076;11.878;2023-07-31T05:23:46;14.90;99.90
19397;DHT22;9834;48.076;11.878;2023-07-31T05:26:19;15.00;99.90
19397;DHT22;9834;48.076;11.878;2023-07-31T05:28:48;15.20;99.90
19397;DHT22;9834;48.076;11.878;2023-07-31T05:31:17;15.40;99.90
19397;DHT22;9834;48.076;11.878;2023-07-31T05:33:52;15.60;99.90
19397;DHT22;9834;48.076;11.878;2023-07-31T05:36:19;15.80;99.90
19397;DHT22;9834;48.076;11.878;2023-07-31T05:38:46;16.00;99.90
19397;DHT22;9834;48.076;11.878;2023-07-31T05:41:15;16.30;99.90
19397;DHT22;9834;48.076;11.878;2023-07-31T05:43:45;16.50;99.90
19397;DHT22;9834;48.076;11.878;2023-07-31T05:46:19;16.80;99.90
19397;DHT22;9834;48.076;11.878;2023-07-31T05:48:51;17.10;99.90
19397;DHT22;9834;48.076;11.878;2023-07-31T05:51:21;17.40;99.90
19397;DHT22;9834;48.076;11.878;2023-07-31T05:53:58;17.60;99.90
19397;DHT22;9834;48.076;11.878;2023-07-31T05:56:31;17.90;99.90
19397;DHT22;9834;48.076;11.878;2023-07-31T05:58:59;18.00;99.90
19397;DHT22;9834;48.076;11.878;2023-07-31T06:01:28;18.10;99.90
19397;DHT22;9834;48.076;11.878;2023-07-31T06:03:54;18.20;99.90
19397;DHT22;9834;48.076;11.878;2023-07-31T06:06:21;18.30;99.90
19397;DHT22;9834;48.076;11.878;2023-07-31T06:08:48;18.40;99.90
19397;DHT22;9834;48.076;11.878;2023-07-31T06:11:18;18.40;99.90
19397;DHT22;9834;48.076;11.878;2023-07-31T06:13:45;18.60;99.90
19397;DHT22;9834;48.076;11.878;2023-07-31T06:16:15;18.60;99.90
19397;DHT22;9834;48.076;11.878;2023-07-31T06:18:49;18.70;99.90
19397;DHT22;9834;48.076;11.878;2023-07-31T06:21:19;18.80;99.90
19397;DHT22;9834;48.076;11.878;2023-07-31T06:24:00;18.80;99.90
19397;DHT22;9834;48.076;11.878;2023-07-31T06:26:30;18.80;99.90
19397;DHT22;9834;48.076;11.878;2023-07-31T06:29:00;19.00;99.90
19397;DHT22;9834;48.076;11.878;2023-07-31T06:31:31;19.00;99.90
19397;DHT22;9834;48.076;11.878;2023-07-31T06:34:00;19.10;99.90
19397;DHT22;9834;48.076;11.878;2023-07-31T06:36:35;19.30;99.90
19397;DHT22;9834;48.076;11.878;2023-07-31T06:39:07;19.30;99.90
19397;DHT22;9834;48.076;11.878;2023-07-31T06:41:41;19.30;99.90
19397;DHT22;9834;48.076;11.878;2023-07-31T06:44:19;19.40;99.90
19397;DHT22;9834;48.076;11.878;2023-07-31T06:46:51;19.50;99.90
19397;DHT22;9834;48.076;11.878;2023-07-31T06:49:20;19.50;99.90
19397;DHT22;9834;48.076;11.878;2023-07-31T06:51:55;19.60;99.90
19397;DHT22;9834;48.076;11.878;2023-07-31T06:54:27;19.60;99.90
19397;DHT22;9834;48.076;11.878;2023-07-31T06:56:59;19.60;99.90
19397;DHT22;9834;48.076;11.878;2023-07-31T06:59:32;19.50;99.90
19397;DHT22;9834;48.076;11.878;2023-07-31T07:02:07;19.50;99.90
19397;DHT22;9834;48.076;11.878;2023-07-31T07:04:36;19.40;99.90
19397;DHT22;9834;48.076;11.878;2023-07-31T07:07:03;19.50;99.90
19397;DHT22;9834;48.076;11.878;2023-07-31T07:09:36;19.60;99.90
19397;DHT22;9834;48.076;11.878;2023-07-31T07:12:11;19.80;98.80
19397;DHT22;9834;48.076;11.878;2023-07-31T07:14:37;19.90;99.50
19397;DHT22;9834;48.076;11.878;2023-07-31T07:17:06;20.20;97.30
19397;DHT22;9834;48.076;11.878;2023-07-31T07:19:40;20.50;96.20
19397;DHT22;9834;48.076;11.878;2023-07-31T07:22:07;20.70;95.70
19397;DHT22;9834;48.076;11.878;2023-07-31T07:24:36;20.80;94.80
19397;DHT22;9834;48.076;11.878;2023-07-31T07:27:05;20.80;94.20
19397;DHT22;9834;48.076;11.878;2023-07-31T07:29:42;20.80;95.60
19397;DHT22;9834;48.076;11.878;2023-07-31T07:32:09;20.80;95.20
19397;DHT22;9834;48.076;11.878;2023-07-31T07:34:47;20.60;93.20
19397;DHT22;9834;48.076;11.878;2023-07-31T07:37:17;20.60;92.60
19397;DHT22;9834;48.076;11.878;2023-07-31T07:39:47;20.40;93.80
19397;DHT22;9834;48.076;11.878;2023-07-31T07:42:14;20.40;94.00
19397;DHT22;9834;48.076;11.878;2023-07-31T07:44:41;20.40;94.20
19397;DHT22;9834;48.076;11.878;2023-07-31T07:47:08;20.30;94.60
19397;DHT22;9834;48.076;11.878;2023-07-31T07:49:44;20.40;94.90
19397;DHT22;9834;48.076;11.878;2023-07-31T07:52:22;20.40;94.80
19397;DHT22;9834;48.076;11.878;2023-07-31T07:54:56;20.50;94.10
19397;DHT22;9834;48.076;11.878;2023-07-31T07:57:25;20.40;92.30
19397;DHT22;9834;48.076;11.878;2023-07-31T07:59:55;20.30;93.70
19397;DHT22;9834;48.076;11.878;2023-07-31T08:02:25;20.30;93.70
19397;DHT22;9834;48.076;11.878;2023-07-31T08:04:56;20.30;95.00
19397;DHT22;9834;48.076;11.878;2023-07-31T08:07:23;20.20;93.00
19397;DHT22;9834;48.076;11.878;2023-07-31T08:09:53;20.10;93.30
19397;DHT22;9834;48.076;11.878;2023-07-31T08:12:19;20.20;93.60
19397;DHT22;9834;48.076;11.878;2023-07-31T08:14:46;20.30;94.30
19397;DHT22;9834;48.076;11.878;2023-07-31T08:17:13;20.30;92.20
19397;DHT22;9834;48.076;11.878;2023-07-31T08:19:47;20.30;92.50
19397;DHT22;9834;48.076;11.878;2023-07-31T08:22:22;20.30;93.20
19397;DHT22;9834;48.076;11.878;2023-07-31T08:24:51;20.50;92.00
19397;DHT22;9834;48.076;11.878;2023-07-31T08:27:18;20.50;92.10
19397;DHT22;9834;48.076;11.878;2023-07-31T08:29:47;20.50;91.70
19397;DHT22;9834;48.076;11.878;2023-07-31T08:32:14;20.80;92.90
19397;DHT22;9834;48.076;11.878;2023-07-31T08:34:40;21.00;91.80
19397;DHT22;9834;48.076;11.878;2023-07-31T08:37:07;21.10;90.30
19397;DHT22;9834;48.076;11.878;2023-07-31T08:39:41;21.10;91.50
19397;DHT22;9834;48.076;11.878;2023-07-31T08:42:12;21.20;90.50
19397;DHT22;9834;48.076;11.878;2023-07-31T08:44:43;21.40;89.70
19397;DHT22;9834;48.076;11.878;2023-07-31T08:47:30;21.90;87.80
19397;DHT22;9834;48.076;11.878;2023-07-31T08:50:08;22.20;87.60
19397;DHT22;9834;48.076;11.878;2023-07-31T08:52:47;22.50;80.40
19397;DHT22;9834;48.076;11.878;2023-07-31T08:55:25;22.60;82.00
19397;DHT22;9834;48.076;11.878;2023-07-31T08:58:03;22.80;78.60
19397;DHT22;9834;48.076;11.878;2023-07-31T09:00:35;22.80;78.10
19397;DHT22;9834;48.076;11.878;2023-07-31T09:03:13;22.70;76.30
19397;DHT22;9834;48.076;11.878;2023-07-31T09:05:43;22.40;76.40
19397;DHT22;9834;48.076;11.878;2023-07-31T09:08:14;22.50;77.90
19397;DHT22;9834;48.076;11.878;2023-07-31T09:10:45;22.50;78.60
19397;DHT22;9834;48.076;11.878;2023-07-31T09:13:13;22.30;78.50
19397;DHT22;9834;48.076;11.878;2023-07-31T09:15:41;22.20;80.20
19397;DHT22;9834;48.076;11.878;2023-07-31T09:18:15;22.10;79.30
19397;DHT22;9834;48.076;11.878;2023-07-31T09:21:03;21.90;80.20
19397;DHT22;9834;48.076;11.878;2023-07-31T09:23:41;21.70;81.60
19397;DHT22;9834;48.076;11.878;2023-07-31T09:26:31;21.80;80.20
19397;DHT22;9834;48.076;11.878;2023-07-31T09:28:58;22.00;81.40
19397;DHT22;9834;48.076;11.878;2023-07-31T09:31:41;22.40;79.50
19397;DHT22;9834;48.076;11.878;2023-07-31T09:34:14;22.80;78.10
19397;DHT22;9834;48.076;11.878;2023-07-31T09:36:45;22.70;75.70
19397;DHT22;9834;48.076;11.878;2023-07-31T09:39:13;22.70;74.00
19397;DHT22;9834;48.076;11.878;2023-07-31T09:41:55;22.90;75.40
19397;DHT22;9834;48.076;11.878;2023-07-31T09:44:37;23.10;76.00
19397;DHT22;9834;48.076;11.878;2023-07-31T09:47:26;23.20;74.30
19397;DHT22;9834;48.076;11.878;2023-07-31T09:49:56;23.20;72.30
19397;DHT22;9834;48.076;11.878;2023-07-31T09:52:22;23.20;72.80
19397;DHT22;9834;48.076;11.878;2023-07-31T09:54:54;23.00;75.20
19397;DHT22;9834;48.076;11.878;2023-07-31T09:57:25;23.20;74.20
19397;DHT22;9834;48.076;11.878;2023-07-31T09:59:53;23.40;74.60
19397;DHT22;9834;48.076;11.878;2023-07-31T10:02:23;23.50;73.00
19397;DHT22;9834;48.076;11.878;2023-07-31T10:04:53;23.50;72.70
19397;DHT22;9834;48.076;11.878;2023-07-31T10:07:25;23.50;75.00
19397;DHT22;9834;48.076;11.878;2023-07-31T10:09:58;23.50;71.60
19397;DHT22;9834;48.076;11.878;2023-07-31T10:12:38;23.30;71.10
19397;DHT22;9834;48.076;11.878;2023-07-31T10:15:08;23.20;70.20
19397;DHT22;9834;48.076;11.878;2023-07-31T10:17:36;23.50;70.80
19397;DHT22;9834;48.076;11.878;2023-07-31T10:20:13;23.70;70.80
19397;DHT22;9834;48.076;11.878;2023-07-31T10:22:51;23.80;68.70
19397;DHT22;9834;48.076;11.878;2023-07-31T10:25:18;23.90;70.30
19397;DHT22;9834;48.076;11.878;2023-07-31T10:27:51;24.40;67.90
19397;DHT22;9834;48.076;11.878;2023-07-31T10:30:28;25.20;66.30
19397;DHT22;9834;48.076;11.878;2023-07-31T10:32:58;25.80;64.50
19397;DHT22;9834;48.076;11.878;2023-07-31T10:35:25;26.10;59.20
19397;DHT22;9834;48.076;11.878;2023-07-31T10:37:53;26.60;55.70
19397;DHT22;9834;48.076;11.878;2023-07-31T10:40:24;26.90;57.60
19397;DHT22;9834;48.076;11.878;2023-07-31T10:43:05;27.00;56.60
19397;DHT22;9834;48.076;11.878;2023-07-31T10:45:38;27.10;55.70
19397;DHT22;9834;48.076;11.878;2023-07-31T10:48:06;26.90;53.60
19397;DHT22;9834;48.076;11.878;2023-07-31T10:50:38;27.20;54.90
19397;DHT22;9834;48.076;11.878;2023-07-31T10:53:05;27.70;52.30
19397;DHT22;9834;48.076;11.878;2023-07-31T10:55:40;27.70;53.50
19397;DHT22;9834;48.076;11.878;2023-07-31T10:58:10;27.50;52.10
19397;DHT22;9834;48.076;11.878;2023-07-31T11:00:40;27.60;52.70
19397;DHT22;9834;48.076;11.878;2023-07-31T11:03:15;27.40;51.10
19397;DHT22;9834;48.076;11.878;2023-07-31T11:05:53;26.80;52.10
19397;DHT22;9834;48.076;11.878;2023-07-31T11:08:30;26.70;52.70
19397;DHT22;9834;48.076;11.878;2023-07-31T11:11:07;26.80;52.00
19397;DHT22;9834;48.076;11.878;2023-07-31T11:13:40;26.70;53.80
19397;DHT22;9834;48.076;11.878;2023-07-31T11:16:08;26.30;52.20
19397;DHT22;9834;48.076;11.878;2023-07-31T11:18:41;25.60;53.30
19397;DHT22;9834;48.076;11.878;2023-07-31T11:21:24;25.60;53.50
19397;DHT22;9834;48.076;11.878;2023-07-31T11:24:01;26.60;53.20
19397;DHT22;9834;48.076;11.878;2023-07-31T11:26:34;27.00;51.70
19397;DHT22;9834;48.076;11.878;2023-07-31T11:29:12;26.70;51.30
19397;DHT22;9834;48.076;11.878;2023-07-31T11:31:45;26.30;52.40
19397;DHT22;9834;48.076;11.878;2023-07-31T11:34:13;25.80;53.70
19397;DHT22;9834;48.076;11.878;2023-07-31T11:36:52;25.90;53.30
19397;DHT22;9834;48.076;11.878;2023-07-31T11:39:20;26.20;52.80
19397;DHT22;9834;48.076;11.878;2023-07-31T11:42:01;26.50;53.60
19397;DHT22;9834;48.076;11.878;2023-07-31T11:44:43;26.20;52.30
19397;DHT22;9834;48.076;11.878;2023-07-31T11:47:15;26.00;54.80
19397;DHT22;9834;48.076;11.878;2023-07-31T11:49:45;26.90;55.50
19397;DHT22;9834;48.076;11.878;2023-07-31T11:52:12;28.80;49.40
19397;DHT22;9834;48.076;11.878;2023-07-31T11:54:40;29.70;47.70
19397;DHT22;9834;48.076;11.878;2023-07-31T11:57:07;29.90;48.00
19397;DHT22;9834;48.076;11.878;2023-07-31T11:59:39;30.50;44.30
19397;DHT22;9834;48.076;11.878;2023-07-31T12:02:15;31.20;49.90
19397;DHT22;9834;48.076;11.878;2023-07-31T12:04:47;31.90;43.60
19397;DHT22;9834;48.076;11.878;2023-07-31T12:07:26;32.50;41.60
19397;DHT22;9834;48.076;11.878;2023-07-31T12:09:54;31.80;42.60
19397;DHT22;9834;48.076;11.878;2023-07-31T12:12:29;32.20;41.50
19397;DHT22;9834;48.076;11.878;2023-07-31T12:14:59;33.00;40.10
19397;DHT22;9834;48.076;11.878;2023-07-31T12:17:26;32.20;42.60
19397;DHT22;9834;48.076;11.878;2023-07-31T12:19:56;31.50;42.40
19397;DHT22;9834;48.076;11.878;2023-07-31T12:22:23;31.90;41.00
19397;DHT22;9834;48.076;11.878;2023-07-31T12:24:50;32.30;41.60
19397;DHT22;9834;48.076;11.878;2023-07-31T12:27:23;32.90;40.40
19397;DHT22;9834;48.076;11.878;2023-07-31T12:29:51;33.90;38.90
19397;DHT22;9834;48.076;11.878;2023-07-31T12:32:26;33.90;38.50
19397;DHT22;9834;48.076;11.878;2023-07-31T12:35:01;34.90;37.80
19397;DHT22;9834;48.076;11.878;2023-07-31T12:37:34;33.80;37.50
19397;DHT22;9834;48.076;11.878;2023-07-31T12:40:01;32.00;40.80
19397;DHT22;9834;48.076;11.878;2023-07-31T12:42:30;30.50;43.30
19397;DHT22;9834;48.076;11.878;2023-07-31T12:45:05;30.10;44.80
19397;DHT22;9834;48.076;11.878;2023-07-31T12:47:41;31.60;42.60
19397;DHT22;9834;48.076;11.878;2023-07-31T12:50:13;33.60;42.10
19397;DHT22;9834;48.076;11.878;2023-07-31T12:52:43;34.70;36.70
19397;DHT22;9834;48.076;11.878;2023-07-31T12:55:10;35.30;36.60
19397;DHT22;9834;48.076;11.878;2023-07-31T12:57:41;36.10;35.80
19397;DHT22;9834;48.076;11.878;2023-07-31T13:00:09;35.50;35.50
19397;DHT22;9834;48.076;11.878;2023-07-31T13:02:49;35.60;38.80
19397;DHT22;9834;48.076;11.878;2023-07-31T13:05:16;37.50;34.10
19397;DHT22;9834;48.076;11.878;2023-07-31T13:07:43;38.00;31.80
19397;DHT22;9834;48.076;11.878;2023-07-31T13:10:10;37.30;34.10
19397;DHT22;9834;48.076;11.878;2023-07-31T13:12:45;36.60;32.90
19397;DHT22;9834;48.076;11.878;2023-07-31T13:15:16;35.20;32.10
19397;DHT22;9834;48.076;11.878;2023-07-31T13:17:43;32.90;36.10
19397;DHT22;9834;48.076;11.878;2023-07-31T13:20:12;32.60;39.50
19397;DHT22;9834;48.076;11.878;2023-07-31T13:22:42;33.00;36.60
19397;DHT22;9834;48.076;11.878;2023-07-31T13:25:12;32.00;38.00
19397;DHT22;9834;48.076;11.878;2023-07-31T13:27:41;31.20;40.10
19397;DHT22;9834;48.076;11.878;2023-07-31T13:30:17;30.90;39.50
19397;DHT22;9834;48.076;11.878;2023-07-31T13:32:50;32.40;39.80
19397;DHT22;9834;48.076;11.878;2023-07-31T13:35:26;34.30;36.80
19397;DHT22;9834;48.076;11.878;2023-07-31T13:37:52;34.50;35.90
19397;DHT22;9834;48.076;11.878;2023-07-31T13:40:19;34.80;36.40
19397;DHT22;9834;48.076;11.878;2023-07-31T13:42:52;36.20;32.80
19397;DHT22;9834;48.076;11.878;2023-07-31T13:45:26;37.20;31.00
19397;DHT22;9834;48.076;11.878;2023-07-31T13:47:58;36.50;32.90
19397;DHT22;9834;48.076;11.878;2023-07-31T13:50:27;37.10;32.70
19397;DHT22;9834;48.076;11.878;2023-07-31T13:52:56;36.70;32.30
19397;DHT22;9834;48.076;11.878;2023-07-31T13:55:22;35.00;33.40
19397;DHT22;9834;48.076;11.878;2023-07-31T13:57:51;34.30;35.90
19397;DHT22;9834;48.076;11.878;2023-07-31T14:00:23;34.10;35.90
19397;DHT22;9834;48.076;11.878;2023-07-31T14:02:56;33.60;34.80
19397;DHT22;9834;48.076;11.878;2023-07-31T14:05:23;33.60;36.10
19397;DHT22;9834;48.076;11.878;2023-07-31T14:08:02;32.50;36.10
19397;DHT22;9834;48.076;11.878;2023-07-31T14:10:29;31.60;39.40
19397;DHT22;9834;48.076;11.878;2023-07-31T14:12:56;31.60;37.60
19397;DHT22;9834;48.076;11.878;2023-07-31T14:15:28;32.20;38.00
19397;DHT22;9834;48.076;11.878;2023-07-31T14:17:55;33.90;36.00
19397;DHT22;9834;48.076;11.878;2023-07-31T14:20:24;35.70;34.40
19397;DHT22;9834;48.076;11.878;2023-07-31T14:23:06;36.40;32.30
19397;DHT22;9834;48.076;11.878;2023-07-31T14:25:33;37.40;31.20
19397;DHT22;9834;48.076;11.878;2023-07-31T14:28:03;37.40;29.80
19397;DHT22;9834;48.076;11.878;2023-07-31T14:30:36;35.80;32.20
19397;DHT22;9834;48.076;11.878;2023-07-31T14:33:03;35.80;32.50
19397;DHT22;9834;48.076;11.878;2023-07-31T14:35:30;35.70;33.10
19397;DHT22;9834;48.076;11.878;2023-07-31T14:38:05;36.40;30.90
19397;DHT22;9834;48.076;11.878;2023-07-31T14:40:32;36.20;30.80
19397;DHT22;9834;48.076;11.878;2023-07-31T14:42:59;34.50;32.10
19397;DHT22;9834;48.076;11.878;2023-07-31T14:45:26;32.30;33.30
19397;DHT22;9834;48.076;11.878;2023-07-31T14:47:53;31.90;33.90
19397;DHT22;9834;48.076;11.878;2023-07-31T14:50:20;32.40;35.00
19397;DHT22;9834;48.076;11.878;2023-07-31T14:52:47;32.00;35.60
19397;DHT22;9834;48.076;11.878;2023-07-31T14:55:27;31.00;36.60
19397;DHT22;9834;48.076;11.878;2023-07-31T14:57:57;30.70;38.20
19397;DHT22;9834;48.076;11.878;2023-07-31T15:00:24;31.40;38.20
19397;DHT22;9834;48.076;11.878;2023-07-31T15:02:52;32.40;36.40
19397;DHT22;9834;48.076;11.878;2023-07-31T15:05:19;32.70;35.60
19397;DHT22;9834;48.076;11.878;2023-07-31T15:07:46;33.00;35.70
19397;DHT22;9834;48.076;11.878;2023-07-31T15:10:16;32.70;35.80
19397;DHT22;9834;48.076;11.878;2023-07-31T15:13:04;32.30;34.70
19397;DHT22;9834;48.076;11.878;2023-07-31T15:15:31;31.30;38.80
19397;DHT22;9834;48.076;11.878;2023-07-31T15:18:04;31.00;36.40
19397;DHT22;9834;48.076;11.878;2023-07-31T15:20:31;31.90;37.50
19397;DHT22;9834;48.076;11.878;2023-07-31T15:23:02;31.60;34.90
19397;DHT22;9834;48.076;11.878;2023-07-31T15:25:36;30.90;37.20
19397;DHT22;9834;48.076;11.878;2023-07-31T15:28:10;30.10;38.10
19397;DHT22;9834;48.076;11.878;2023-07-31T15:30:39;29.00;40.10
19397;DHT22;9834;48.076;11.878;2023-07-31T15:33:10;28.40;41.20
19397;DHT22;9834;48.076;11.878;2023-07-31T15:35:40;27.80;43.50
19397;DHT22;9834;48.076;11.878;2023-07-31T15:38:07;27.70;43.80
19397;DHT22;9834;48.076;11.878;2023-07-31T15:40:36;28.20;43.50
19397;DHT22;9834;48.076;11.878;2023-07-31T15:43:07;29.30;42.10
19397;DHT22;9834;48.076;11.878;2023-07-31T15:45:33;30.10;41.80
19397;DHT22;9834;48.076;11.878;2023-07-31T15:48:03;30.20;41.00
19397;DHT22;9834;48.076;11.878;2023-07-31T15:50:36;29.80;42.70
19397;DHT22;9834;48.076;11.878;2023-07-31T15:53:13;29.20;42.30
19397;DHT22;9834;48.076;11.878;2023-07-31T15:55:43;28.10;44.80
19397;DHT22;9834;48.076;11.878;2023-07-31T15:58:11;27.20;45.40